Time;durP1;ratioP1;P1;durP2;ratioP2;P2;SDS_P1;SDS_P2;PMS_P1;PMS_P2;Temp;Humidity;BMP_temperature;BMP_pressure;BME280_temperature;BME280_humidity;BME280_pressure;Samples;Min_cycle;Max_cycle;Signal;HPM_P1;HPM_P2
2024/02/28 00:01:52;;;;;;;;;60.67;48.67;;;;;8.44;100.00;99535.09;6273732;20;2862957;-43
2024/02/28 00:04:21;;;;;;;;;64.00;50.67;;;;;8.73;100.00;99536.16;6307797;20;3627392;-45
2024/02/28 00:06:51;;;;;;;;;60.33;48.67;;;;;8.70;100.00;99530.97;6308436;20;3609707;-43
2024/02/28 00:09:21;;;;;;;;;58.67;48.67;;;;;8.51;100.00;99523.13;6307668;20;2866078;-46
2024/02/28 00:11:49;;;;;;;;;62.00;50.00;;;;;8.67;100.00;99519.59;6309943;20;3604400;-46
2024/02/28 00:14:19;;;;;;;;;56.67;44.00;;;;;8.56;100.00;99533.56;6276168;20;3634390;-44
2024/02/28 00:16:49;;;;;;;;;57.67;45.33;;;;;8.72;100.00;99530.91;6308541;20;3616923;-44
2024/02/28 00:19:20;;;;;;;;;59.00;45.67;;;;;8.79;100.00;99526.91;6305392;20;3615884;-44
2024/02/28 00:21:49;;;;;;;;;52.00;43.67;;;;;8.77;100.00;99526.16;6306196;20;2863862;-49
2024/02/28 00:24:19;;;;;;;;;51.00;42.33;;;;;8.60;100.00;99529.75;6305208;20;2856594;-43
2024/02/28 00:26:47;;;;;;;;;56.00;45.50;;;;;8.35;100.00;99531.09;6305280;20;2858625;-44
2024/02/28 00:29:17;;;;;;;;;57.00;45.33;;;;;7.98;100.00;99532.25;6275638;20;3612776;-44
2024/02/28 00:31:47;;;;;;;;;54.33;44.33;;;;;8.25;100.00;99529.00;6306957;20;3601341;-44
2024/02/28 00:34:15;;;;;;;;;53.50;43.50;;;;;8.08;100.00;99528.13;6304460;20;2835734;-46
2024/02/28 00:36:45;;;;;;;;;59.00;47.00;;;;;8.28;100.00;99539.53;6275381;20;3626480;-45
2024/02/28 00:39:24;;;;;;;;;56.00;46.00;;;;;8.15;100.00;99536.66;6307767;20;2865014;-44
2024/02/28 00:41:54;;;;;;;;;56.67;45.33;;;;;8.04;100.00;99531.91;6304972;20;3627377;-44
2024/02/28 00:44:23;;;;;;;;;55.33;46.00;;;;;8.21;100.00;99543.47;6305576;20;2861284;-44
2024/02/28 00:46:53;;;;;;;;;57.00;47.67;;;;;8.10;100.00;99547.59;6307650;20;3606579;-46
2024/02/28 00:49:22;;;;;;;;;53.50;44.50;;;;;8.17;100.00;99539.28;6306272;20;2846198;-44
2024/02/28 00:51:51;;;;;;;;;53.33;44.00;;;;;8.34;100.00;99541.88;6276261;20;2868117;-44
2024/02/28 00:54:23;;;;;;;;;56.67;45.67;;;;;8.22;100.00;99539.88;6305044;20;2871292;-43
2024/02/28 00:56:52;;;;;;;;;54.50;46.50;;;;;8.14;100.00;99538.47;6303672;20;2860829;-44
2024/02/28 00:59:22;;;;;;;;;59.00;45.33;;;;;8.52;100.00;99548.06;6274279;20;3614922;-45
2024/02/28 01:01:51;;;;;;;;;50.00;40.33;;;;;8.61;100.00;99536.88;6304496;20;2865906;-43
2024/02/28 01:04:20;;;;;;;;;47.00;38.00;;;;;8.64;100.00;99541.19;6303220;20;2877553;-43
2024/02/28 01:06:49;;;;;;;;;44.50;38.00;;;;;8.54;100.00;99547.03;6306450;20;2850911;-44
2024/02/28 01:09:19;;;;;;;;;48.00;38.33;;;;;8.00;100.00;99549.03;6273280;20;3612727;-46
2024/02/28 01:11:48;;;;;;;;;50.33;38.67;;;;;7.59;100.00;99551.22;6306145;20;3604403;-44
2024/02/28 01:14:17;;;;;;;;;47.00;38.00;;;;;7.90;100.00;99545.16;6301831;20;2853492;-43
2024/02/28 01:16:47;;;;;;;;;42.33;35.67;;;;;8.26;100.00;99549.44;6272444;20;3612774;-44
2024/02/28 01:19:17;;;;;;;;;48.33;39.67;;;;;8.17;100.00;99558.00;6303421;20;2865897;-44
2024/02/28 01:21:46;;;;;;;;;47.33;40.33;;;;;7.87;100.00;99561.31;6304311;20;2857648;-43
2024/02/28 01:24:15;;;;;;;;;51.33;37.00;;;;;7.75;100.00;99559.31;6305602;20;3605487;-43
2024/02/28 01:26:44;;;;;;;;;51.00;42.00;;;;;7.70;100.00;99555.06;6273146;20;2856665;-43
2024/02/28 01:29:14;;;;;;;;;52.33;43.00;;;;;8.19;100.00;99553.41;6303483;20;3613971;-43
2024/02/28 01:31:43;;;;;;;;;50.00;38.33;;;;;8.19;100.00;99556.06;6304243;20;3603412;-43
2024/02/28 01:34:12;;;;;;;;;45.00;38.50;;;;;8.36;100.00;99556.03;6302642;20;2856566;-43
2024/02/28 01:36:42;;;;;;;;;50.33;40.00;;;;;8.03;100.00;99551.56;6273033;20;2851473;-43
2024/02/28 01:39:10;;;;;;;;;50.00;42.00;;;;;7.93;100.00;99566.38;6305716;20;2857601;-43
2024/02/28 01:41:40;;;;;;;;;52.33;43.33;;;;;7.97;100.00;99557.22;6273038;20;2863853;-44
2024/02/28 01:44:09;;;;;;;;;49.50;40.00;;;;;7.74;100.00;99557.56;6303338;20;2851390;-43
2024/02/28 01:46:38;;;;;;;;;55.00;44.00;;;;;7.45;100.00;99554.56;6272246;20;2857579;-44
2024/02/28 01:49:08;;;;;;;;;50.67;39.00;;;;;7.43;100.00;99557.34;6306231;20;2869020;-44
2024/02/28 01:51:37;;;;;;;;;49.00;42.50;;;;;7.74;100.00;99560.25;6304376;20;2845084;-46
2024/02/28 01:54:06;;;;;;;;;52.00;43.50;;;;;7.83;100.00;99563.31;6273796;20;2852383;-44
2024/02/28 01:56:37;;;;;;;;;52.00;43.33;;;;;8.04;100.00;99558.63;6273740;20;3606537;-41
2024/02/28 01:59:09;;;;;;;;;52.67;41.00;;;;;7.91;100.00;99554.88;6304289;20;2853509;-43
2024/02/28 02:01:39;;;;;;;;;48.00;40.00;;;;;7.69;100.00;99564.03;6301526;20;2868200;-44
2024/02/28 02:04:08;;;;;;;;;49.00;41.00;;;;;7.65;100.00;99559.78;6302235;20;2857560;-43
2024/02/28 02:06:43;;;;;;;;;52.67;43.00;;;;;7.74;100.00;99555.78;6272840;20;2853411;-44
2024/02/28 02:09:12;;;;;;;;;54.50;44.50;;;;;7.73;100.00;99562.06;6305717;20;2850384;-43
2024/02/28 02:11:41;;;;;;;;;54.67;42.00;;;;;7.42;100.00;99571.63;6274417;20;3619000;-44
2024/02/28 02:14:11;;;;;;;;;58.67;45.33;;;;;7.42;100.00;99560.09;6301320;20;3611751;-43
2024/02/28 02:16:40;;;;;;;;;52.50;43.50;;;;;7.28;100.00;99557.25;6304201;20;2835704;-47
2024/02/28 02:19:10;;;;;;;;;56.00;46.00;;;;;7.89;100.00;99562.13;6272118;20;2857537;-46
2024/02/28 02:21:50;;;;;;;;;59.50;46.00;;;;;7.58;100.00;99563.72;6274194;20;2865879;-45
2024/02/28 02:24:20;;;;;;;;;63.00;50.00;;;;;7.65;100.00;99564.25;6270251;20;3613889;-47
2024/02/28 02:26:52;;;;;;;;;61.33;47.00;;;;;7.68;100.00;99572.09;6307768;20;3630905;-48
2024/02/28 02:29:21;;;;;;;;;60.33;46.00;;;;;7.43;100.00;99567.16;6309163;20;3609622;-46
2024/02/28 02:31:51;;;;;;;;;56.00;43.67;;;;;7.41;100.00;99571.72;6309573;20;2880715;-46
2024/02/28 02:34:20;;;;;;;;;56.33;46.33;;;;;7.54;100.00;99569.28;6309171;20;2859802;-48
2024/02/28 02:36:50;;;;;;;;;60.33;48.33;;;;;7.64;100.00;99570.56;6309224;20;2873307;-45
2024/02/28 02:39:19;;;;;;;;;57.00;47.67;;;;;7.45;100.00;99570.59;6310351;20;3615826;-46
2024/02/28 02:41:49;;;;;;;;;63.50;49.00;;;;;7.31;100.00;99570.44;6308069;20;2830673;-48
2024/02/28 02:44:18;;;;;;;;;59.67;49.33;;;;;7.67;100.00;99571.25;6304861;20;3613912;-46
2024/02/28 02:46:48;;;;;;;;;64.67;48.33;;;;;7.84;100.00;99575.72;6308803;20;3616971;-48
2024/02/28 02:49:18;;;;;;;;;62.67;47.67;;;;;7.99;100.00;99576.72;6309211;20;3636376;-46
2024/02/28 02:51:48;;;;;;;;;60.67;47.33;;;;;7.98;100.00;99575.00;6308335;20;2870288;-45
2024/02/28 02:54:17;;;;;;;;;57.33;46.67;;;;;7.76;100.00;99585.06;6305697;20;3620028;-46
2024/02/28 02:56:46;;;;;;;;;50.50;43.00;;;;;6.97;100.00;99580.13;6306027;20;2849349;-46
2024/02/28 02:59:15;;;;;;;;;52.33;40.33;;;;;7.07;100.00;99586.75;6275722;20;2853951;-48
2024/02/28 03:01:45;;;;;;;;;49.00;40.67;;;;;7.61;100.00;99584.03;6304998;20;2874387;-45
2024/02/28 03:04:14;;;;;;;;;45.00;38.50;;;;;7.96;100.00;99584.91;6305112;20;2852399;-45
2024/02/28 03:06:43;;;;;;;;;48.67;40.00;;;;;7.42;100.00;99586.78;6276043;20;2864977;-48
2024/02/28 03:09:13;;;;;;;;;50.67;37.00;;;;;7.98;100.00;99585.69;6308277;20;3633765;-45
2024/02/28 03:11:41;;;;;;;;;48.00;40.00;;;;;7.74;100.00;99586.97;6308031;20;2845096;-47
2024/02/28 03:14:10;;;;;;;;;46.50;39.50;;;;;7.79;100.00;99590.25;6276341;20;2862831;-47
2024/02/28 03:16:44;;;;;;;;;47.67;41.33;;;;;7.52;100.00;99581.88;6277075;20;3610685;-46
2024/02/28 03:19:14;;;;;;;;;48.67;39.00;;;;;7.77;100.00;99587.69;6308825;20;3610740;-46
2024/02/28 03:21:44;;;;;;;;;55.67;40.67;;;;;7.97;100.00;99588.44;6305725;20;3619077;-48
2024/02/28 03:24:13;;;;;;;;;51.50;43.00;;;;;8.04;100.00;99598.75;6305884;20;2863246;-47
2024/02/28 03:26:43;;;;;;;;;51.67;40.67;;;;;7.91;100.00;99603.00;6274616;20;2871140;-46
2024/02/28 03:29:12;;;;;;;;;55.33;43.33;;;;;8.08;100.00;99607.44;6305938;20;3619075;-45
2024/02/28 03:31:42;;;;;;;;;50.67;40.67;;;;;8.48;100.00;99614.28;6308371;20;2866034;-48
2024/02/28 03:34:11;;;;;;;;;50.67;41.67;;;;;8.59;100.00;99612.81;6307433;20;2847273;-46
2024/02/28 03:36:40;;;;;;;;;50.00;40.00;;;;;8.34;100.00;99608.75;6304395;20;2841981;-46
2024/02/28 03:39:10;;;;;;;;;62.67;48.67;;;;;8.47;100.00;99603.63;6277288;20;3610772;-47
2024/02/28 03:41:39;;;;;;;;;58.67;46.00;;;;;8.50;100.00;99609.66;6304843;20;2875371;-46
2024/02/28 03:44:09;;;;;;;;;53.00;43.67;;;;;8.43;100.00;99612.78;6305911;20;2865024;-47
2024/02/28 03:46:39;;;;;;;;;57.33;45.67;;;;;8.29;100.00;99601.00;6307783;20;3603376;-48
2024/02/28 03:49:08;;;;;;;;;55.33;45.00;;;;;8.07;100.00;99611.94;6305537;20;2872228;-45
2024/02/28 03:51:41;;;;;;;;;57.33;45.00;;;;;7.71;100.00;99604.00;6308865;20;2861965;-47
2024/02/28 03:54:11;;;;;;;;;52.33;41.00;;;;;7.57;100.00;99606.53;6305861;20;3640957;-46
2024/02/28 03:56:40;;;;;;;;;54.33;45.00;;;;;7.81;100.00;99605.28;6308588;20;3618000;-47
2024/02/28 03:59:10;;;;;;;;;52.33;42.00;;;;;7.86;100.00;99607.72;6306103;20;2862740;-47
2024/02/28 04:01:40;;;;;;;;;51.67;40.33;;;;;7.74;100.00;99608.34;6302817;20;2860942;-47
2024/02/28 04:04:09;;;;;;;;;53.00;43.00;;;;;8.06;100.00;99612.91;6304784;20;2864872;-45
2024/02/28 04:06:39;;;;;;;;;51.00;43.00;;;;;8.47;100.00;99614.34;6307098;20;2862942;-45
2024/02/28 04:09:08;;;;;;;;;36.67;32.00;;;;;8.10;100.00;99609.09;6309413;20;3595107;-46
2024/02/28 04:11:38;;;;;;;;;58.00;42.33;;;;;8.11;100.00;99618.88;6278264;20;3623341;-47
2024/02/28 04:14:07;;;;;;;;;56.00;45.33;;;;;7.84;100.00;99605.13;6304301;20;2865940;-48
2024/02/28 04:16:43;;;;;;;;;51.67;42.33;;;;;7.64;100.00;99607.97;6303580;20;3606549;-45
2024/02/28 04:19:13;;;;;;;;;51.33;43.00;;;;;7.90;100.00;99609.31;6305548;20;2856656;-45
2024/02/28 04:21:42;;;;;;;;;54.00;43.33;;;;;8.11;100.00;99618.88;6305027;20;2853448;-47
2024/02/28 04:24:15;;;;;;;;;58.00;47.00;;;;;7.98;100.00;99630.25;6305376;20;2868077;-44
2024/02/28 04:26:46;;;;;;;;;55.00;45.00;;;;;8.08;100.00;99631.53;6308310;20;3603423;-44
2024/02/28 04:29:15;;;;;;;;;76.67;59.67;;;;;8.35;100.00;99626.53;6307482;20;3621149;-49
2024/02/28 04:31:45;;;;;;;;;64.00;50.67;;;;;8.32;100.00;99632.91;6308455;20;3627368;-46
2024/02/28 04:34:14;;;;;;;;;63.33;51.33;;;;;8.11;100.00;99636.72;6304205;20;3633574;-45
2024/02/28 04:36:43;;;;;;;;;68.33;53.67;;;;;8.00;100.00;99631.06;6310770;20;3600447;-46
2024/02/28 04:39:12;;;;;;;;;54.00;45.50;;;;;8.30;100.00;99637.47;6277224;20;2851322;-45
2024/02/28 04:41:41;;;;;;;;;57.33;47.00;;;;;8.61;100.00;99637.66;6277977;20;2871268;-45
2024/02/28 04:44:11;;;;;;;;;56.33;46.33;;;;;8.23;100.00;99648.59;6306522;20;2866109;-44
2024/02/28 04:46:40;;;;;;;;;64.33;50.33;;;;;8.08;100.00;99644.88;6308561;20;2864954;-46
2024/02/28 04:49:10;;;;;;;;;58.67;46.33;;;;;8.23;100.00;99644.09;6306503;20;3617031;-46
2024/02/28 04:51:39;;;;;;;;;58.00;48.33;;;;;8.46;100.00;99647.41;6305775;20;3628854;-45
2024/02/28 04:54:09;;;;;;;;;48.00;40.67;;;;;8.24;100.00;99650.28;6305684;20;3618021;-45
2024/02/28 04:56:42;;;;;;;;;71.00;54.33;;;;;8.50;100.00;99647.13;6306323;20;3608610;-45
2024/02/28 04:59:12;;;;;;;;;66.00;54.00;;;;;8.46;100.00;99640.22;6306858;20;3623170;-44
2024/02/28 05:01:42;;;;;;;;;71.67;54.33;;;;;8.01;100.00;99646.16;6307433;20;3633630;-45
2024/02/28 05:04:13;;;;;;;;;60.33;46.00;;;;;7.41;100.00;99633.16;6273757;20;3633713;-46
2024/02/28 05:06:42;;;;;;;;;54.67;44.67;;;;;7.25;100.00;99635.72;6307040;20;3604430;-45
2024/02/28 05:09:11;;;;;;;;;53.00;43.50;;;;;7.21;100.00;99626.09;6305791;20;2860705;-45
2024/02/28 05:11:41;;;;;;;;;51.50;42.00;;;;;7.09;100.00;99627.59;6276591;20;2848286;-47
2024/02/28 05:14:11;;;;;;;;;46.67;38.67;;;;;7.76;100.00;99622.50;6274891;20;2869149;-45
2024/02/28 05:16:39;;;;;;;;;41.00;35.50;;;;;7.77;100.00;99625.09;6307587;20;2859610;-44
2024/02/28 05:19:09;;;;;;;;;48.00;37.00;;;;;7.54;100.00;99634.28;6274498;20;3630518;-44
2024/02/28 05:21:42;;;;;;;;;45.00;39.00;;;;;7.77;100.00;99638.47;6306572;20;3598214;-45
2024/02/28 05:24:11;;;;;;;;;47.50;40.00;;;;;7.79;100.00;99641.03;6273084;20;2859671;-45
2024/02/28 05:26:41;;;;;;;;;42.33;33.67;;;;;8.00;100.00;99655.13;6276894;20;2856526;-47
2024/02/28 05:29:10;;;;;;;;;43.33;34.67;;;;;8.01;100.00;99662.22;6308510;20;3605510;-44
2024/02/28 05:31:39;;;;;;;;;36.67;32.67;;;;;8.00;100.00;99666.66;6277231;20;3586740;-45
2024/02/28 05:34:07;;;;;;;;;32.00;26.00;;;;;8.35;100.00;99669.34;6308843;20;3602387;-45
2024/02/28 05:36:37;;;;;;;;;56.00;42.00;;;;;8.36;100.00;99673.75;6276042;20;3626397;-44
2024/02/28 05:39:08;;;;;;;;;53.33;42.33;;;;;8.57;100.00;99686.00;6306903;20;3621279;-45
2024/02/28 05:41:37;;;;;;;;;48.00;39.00;;;;;8.65;100.00;99687.41;6304872;20;2863938;-47
2024/02/28 05:44:07;;;;;;;;;53.00;42.00;;;;;8.55;100.00;99682.53;6305263;20;2864901;-45
2024/02/28 05:46:36;;;;;;;;;54.00;43.00;;;;;7.88;100.00;99675.34;6305494;20;2863812;-43
2024/02/28 05:49:06;;;;;;;;;57.00;47.00;;;;;7.62;100.00;99677.50;6275784;20;3610720;-44
2024/02/28 05:51:37;;;;;;;;;58.33;46.33;;;;;7.58;100.00;99672.38;6304691;20;2868240;-43
2024/02/28 05:54:06;;;;;;;;;50.67;42.67;;;;;7.65;100.00;99665.78;6306100;20;2860753;-44
2024/02/28 05:56:36;;;;;;;;;49.33;41.00;;;;;7.42;100.00;99669.59;6304403;20;2862933;-44
2024/02/28 05:59:05;;;;;;;;;47.00;37.33;;;;;7.95;100.00;99675.88;6306600;20;3624252;-44
2024/02/28 06:01:34;;;;;;;;;51.50;40.50;;;;;8.34;100.00;99679.16;6306055;20;2856730;-44
2024/02/28 06:04:04;;;;;;;;;54.67;42.33;;;;;8.09;100.00;99684.06;6281549;20;2866991;-44
2024/02/28 06:06:32;;;;;;;;;43.33;37.00;;;;;8.31;100.00;99686.50;6316246;20;3598225;-44
2024/02/28 06:09:02;;;;;;;;;55.00;40.00;;;;;8.16;100.00;99689.94;6279599;20;2873337;-44
2024/02/28 06:11:33;;;;;;;;;48.33;40.00;;;;;8.11;100.00;99693.75;6311369;20;2855494;-43
2024/02/28 06:14:04;;;;;;;;;47.33;37.33;;;;;8.49;100.00;99704.28;6310237;20;2863905;-43
2024/02/28 06:16:33;;;;;;;;;68.33;52.00;;;;;8.73;100.00;99701.25;6309072;20;3644006;-44
2024/02/28 06:19:03;;;;;;;;;72.33;56.33;;;;;8.70;100.00;99699.59;6309957;20;3636702;-44
2024/02/28 06:21:34;;;;;;;;;65.33;51.00;;;;;8.84;100.00;99709.56;6315526;20;3633619;-45
2024/02/28 06:24:04;;;;;;;;;64.00;47.67;;;;;8.66;100.00;99705.19;6278609;20;3634649;-45
2024/02/28 06:26:33;;;;;;;;;61.67;49.33;;;;;8.50;100.00;99716.69;6311855;20;3608632;-45
2024/02/28 06:29:04;;;;;;;;;55.33;46.00;;;;;8.65;100.00;99712.38;6308711;20;3611708;-44
2024/02/28 06:31:34;;;;;;;;;53.00;44.00;;;;;8.51;100.00;99710.44;6311209;20;2854570;-49
2024/02/28 06:34:04;;;;;;;;;56.67;45.33;;;;;8.45;100.00;99716.13;6309891;20;3596099;-44
2024/02/28 06:36:33;;;;;;;;;54.67;45.00;;;;;8.49;100.00;99719.47;6309045;20;3623220;-44
2024/02/28 06:39:03;;;;;;;;;55.33;46.33;;;;;8.49;100.00;99709.63;6308532;20;2854461;-47
2024/02/28 06:41:33;;;;;;;;;51.67;39.67;;;;;8.99;100.00;99708.72;6309291;20;3606499;-44
2024/02/28 06:44:02;;;;;;;;;53.67;42.00;;;;;9.11;100.00;99711.69;6311021;20;3616011;-45
2024/02/28 06:46:32;;;;;;;;;39.00;32.67;;;;;9.17;100.00;99716.72;6278046;20;2862971;-44
2024/02/28 06:49:00;;;;;;;;;48.00;38.33;;;;;8.91;100.00;99707.44;6313827;20;3602341;-45
2024/02/28 06:51:29;;;;;;;;;48.00;40.00;;;;;8.98;100.00;99717.72;6279095;20;2849223;-46
2024/02/28 06:53:59;;;;;;;;;55.00;43.00;;;;;8.95;100.00;99723.25;6278726;20;3621124;-44
2024/02/28 06:56:30;;;;;;;;;55.00;45.00;;;;;9.10;100.00;99721.53;6309752;20;2864924;-45
2024/02/28 06:58:59;;;;;;;;;52.67;42.33;;;;;8.99;100.00;99727.47;6308233;20;2870237;-45
2024/02/28 07:01:28;;;;;;;;;51.67;43.00;;;;;8.63;100.00;99737.47;6312410;20;3599233;-44
2024/02/28 07:03:56;;;;;;;;;45.00;38.50;;;;;8.84;100.00;99741.69;6274410;20;2831543;-45
2024/02/28 07:06:26;;;;;;;;;51.33;39.67;;;;;8.81;100.00;99741.84;6280021;20;2866938;-44
2024/02/28 07:08:55;;;;;;;;;47.33;38.67;;;;;8.83;100.00;99748.00;6309380;20;3581713;-47
2024/02/28 07:11:24;;;;;;;;;39.67;35.67;;;;;8.91;100.00;99744.91;6276471;20;3611683;-46
2024/02/28 07:13:53;;;;;;;;;38.67;34.33;;;;;8.71;100.00;99751.31;6310994;20;3598271;-44
2024/02/28 07:16:22;;;;;;;;;34.33;30.33;;;;;9.04;100.00;99742.44;6277649;20;2849282;-45
2024/02/28 07:18:51;;;;;;;;;28.00;26.33;;;;;8.88;100.00;99748.63;6310337;20;3593057;-44
2024/02/28 07:21:21;;;;;;;;;39.67;34.00;;;;;8.78;100.00;99747.38;6276820;20;2877559;-44
2024/02/28 07:23:49;;;;;;;;;40.67;33.33;;;;;8.87;100.00;99754.03;6311935;20;3609643;-44
2024/02/28 07:26:19;;;;;;;;;42.00;33.67;;;;;9.13;100.00;99744.59;6276640;20;3626325;-44
2024/02/28 07:28:55;;;;;;;;;37.33;33.00;;;;;8.98;100.00;99749.84;6312785;20;3600310;-45
2024/02/28 07:31:24;;;;;;;;;37.00;31.00;;;;;8.96;100.00;99754.44;6278845;20;2864911;-45
2024/02/28 07:33:54;;;;;;;;;36.00;33.00;;;;;9.07;100.00;99753.84;6309946;20;3606474;-44
2024/02/28 07:36:23;;;;;;;;;36.33;31.00;;;;;9.19;100.00;99755.88;6311472;20;3581490;-46
2024/02/28 07:38:52;;;;;;;;;39.00;33.00;;;;;9.28;100.00;99756.31;6278075;20;2741965;-47
2024/02/28 07:41:22;;;;;;;;;35.33;33.00;;;;;9.75;100.00;99745.59;6308228;20;2852415;-48
2024/02/28 07:43:50;;;;;;;;;35.33;31.67;;;;;9.22;100.00;99747.66;6309019;20;3596141;-47
2024/02/28 07:46:20;;;;;;;;;32.33;31.00;;;;;9.63;100.00;99757.00;6272660;20;2849453;-48
2024/02/28 07:48:48;;;;;;;;;38.00;31.00;;;;;9.73;100.00;99763.56;6312517;20;3619219;-45
2024/02/28 07:51:18;;;;;;;;;36.67;32.67;;;;;9.66;100.00;99772.91;6278903;20;2857634;-48
2024/02/28 07:53:47;;;;;;;;;34.33;31.33;;;;;9.72;100.00;99780.63;6311205;20;3595037;-46
2024/02/28 07:56:18;;;;;;;;;30.00;27.00;;;;;9.87;100.00;99770.81;6279693;20;2850412;-46
2024/02/28 07:58:47;;;;;;;;;28.00;24.50;;;;;9.98;100.00;99767.53;6306869;20;2854453;-44
2024/02/28 08:01:16;;;;;;;;;32.33;28.00;;;;;9.70;100.00;99785.19;6282054;20;3587855;-44
2024/02/28 08:03:46;;;;;;;;;33.67;30.33;;;;;10.04;100.00;99794.88;6275776;20;2854492;-45
2024/02/28 08:06:16;;;;;;;;;34.33;31.00;;;;;10.52;100.00;99792.13;6310153;20;3602344;-47
2024/02/28 08:08:46;;;;;;;;;40.67;32.00;;;;;10.36;97.85;99794.84;6278674;20;3614895;-45
2024/02/28 08:11:15;;;;;;;;;32.67;29.33;;;;;10.15;96.84;99796.94;6280065;20;3604492;-45
2024/02/28 08:13:44;;;;;;;;;33.67;29.67;;;;;10.06;98.06;99792.13;6280100;20;3577315;-44
2024/02/28 08:16:13;;;;;;;;;34.67;29.67;;;;;10.63;96.18;99786.09;6276180;20;3606573;-46
2024/02/28 08:18:42;;;;;;;;;34.33;29.00;;;;;11.09;94.55;99794.03;6311116;20;3614828;-44
2024/02/28 08:21:12;;;;;;;;;32.33;31.33;;;;;11.06;95.06;99795.09;6277393;20;2844102;-44
2024/02/28 08:23:40;;;;;;;;;29.33;25.33;;;;;10.62;94.11;99789.75;6312741;20;3591971;-45
2024/02/28 08:26:11;;;;;;;;;30.67;29.00;;;;;11.21;91.14;99788.75;6275967;20;2838929;-46
2024/02/28 08:28:40;;;;;;;;;33.33;27.00;;;;;11.65;89.77;99787.75;6310087;20;3622202;-46
2024/02/28 08:31:09;;;;;;;;;35.67;31.00;;;;;11.45;90.34;99793.53;6310832;20;3590908;-45
2024/02/28 08:33:37;;;;;;;;;30.00;29.33;;;;;11.09;91.70;99794.03;6282567;20;3594050;-45
2024/02/28 08:36:07;;;;;;;;;36.33;30.00;;;;;10.94;92.48;99798.53;6275942;20;3599216;-45
2024/02/28 08:38:38;;;;;;;;;26.67;25.33;;;;;11.35;89.80;99800.47;6311692;20;3583589;-45
2024/02/28 08:41:08;;;;;;;;;31.50;28.50;;;;;12.03;85.42;99802.38;6279200;20;2846104;-45
2024/02/28 08:43:41;;;;;;;;;44.33;36.33;;;;;12.16;87.67;99797.06;6276994;20;2864892;-45
2024/02/28 08:46:15;;;;;;;;;41.33;34.33;;;;;12.31;83.54;99806.81;6313843;20;3612835;-46
2024/02/28 08:48:44;;;;;;;;;31.00;29.00;;;;;11.94;86.43;99806.56;6282948;20;3606517;-44
2024/02/28 08:51:13;;;;;;;;;32.33;29.00;;;;;11.58;89.47;99812.44;6278788;20;3608591;-46
2024/02/28 08:53:41;;;;;;;;;28.67;26.33;;;;;11.98;87.75;99816.16;6279833;20;3603377;-47
2024/02/28 08:56:11;;;;;;;;;39.00;35.33;;;;;11.26;89.70;99803.72;6278700;20;2838860;-44
2024/02/28 08:58:40;;;;;;;;;32.67;31.00;;;;;11.46;91.91;99797.97;6310918;20;3585901;-44
2024/02/28 09:01:08;;;;;;;;;27.00;24.00;;;;;11.94;87.97;99809.25;6281891;20;3587808;-46
2024/02/28 09:03:38;;;;;;;;;32.33;29.33;;;;;11.69;88.08;99801.00;6278127;20;3596094;-45
2024/02/28 09:06:08;;;;;;;;;32.00;29.00;;;;;11.92;88.52;99805.78;6277596;20;2855521;-46
2024/02/28 09:08:36;;;;;;;;;30.00;28.33;;;;;12.26;85.37;99800.88;6313273;20;3559649;-44
2024/02/28 09:11:06;;;;;;;;;30.33;30.33;;;;;12.34;86.21;99798.53;6275776;20;3606642;-46
2024/02/28 09:13:37;;;;;;;;;16.00;15.00;;;;;12.04;85.71;99805.00;6307031;20;3543094;-46
2024/02/28 09:16:06;;;;;;;;;30.67;29.00;;;;;11.95;87.67;99800.19;6277437;20;3606605;-46
2024/02/28 09:18:35;;;;;;;;;34.67;26.67;;;;;12.73;83.80;99812.97;6278153;20;3609744;-45
2024/02/28 09:21:04;;;;;;;;;32.33;31.00;;;;;12.50;83.99;99807.28;6282049;20;3586692;-48
2024/02/28 09:23:33;;;;;;;;;28.00;26.33;;;;;12.01;87.17;99810.59;6274644;20;3596092;-43
2024/02/28 09:26:05;;;;;;;;;27.67;26.33;;;;;12.67;84.75;99816.09;6310065;20;3597234;-44
2024/02/28 09:28:34;;;;;;;;;26.67;26.67;;;;;13.02;82.70;99812.78;6277929;20;3594057;-45
2024/02/28 09:31:03;;;;;;;;;33.00;31.00;;;;;12.48;82.26;99814.63;6282246;20;3594059;-42
2024/02/28 09:33:34;;;;;;;;;36.67;33.67;;;;;13.86;77.76;99816.72;6278025;20;3600274;-42
2024/02/28 09:36:04;;;;;;;;;31.00;29.00;;;;;13.15;79.74;99814.50;6279326;20;3584640;-43
2024/02/28 09:38:34;;;;;;;;;32.67;28.67;;;;;13.24;79.22;99822.91;6277905;20;3596181;-45
2024/02/28 09:41:04;;;;;;;;;26.67;25.00;;;;;13.95;75.58;99825.00;6281747;20;3585661;-44
2024/02/28 09:43:41;;;;;;;;;28.67;25.67;;;;;13.80;75.04;99824.28;6276854;20;3597254;-42
2024/02/28 09:46:11;;;;;;;;;34.33;28.67;;;;;12.89;80.66;99818.16;6278390;20;3606586;-43
2024/02/28 09:48:41;;;;;;;;;35.00;30.00;;;;;14.25;76.00;99819.16;6278970;20;3594042;-44
2024/02/28 09:51:10;;;;;;;;;30.33;28.00;;;;;13.78;76.86;99823.53;6278743;20;3610727;-43
2024/02/28 09:53:38;;;;;;;;;26.00;26.00;;;;;14.28;76.17;99823.47;6277216;20;3600306;-42
2024/02/28 09:56:07;;;;;;;;;36.33;29.00;;;;;14.30;74.99;99834.16;6274746;20;3617060;-47
2024/02/28 09:58:39;;;;;;;;;28.00;27.67;;;;;13.43;75.52;99819.81;6277397;20;3595070;-42
2024/02/28 10:01:09;;;;;;;;;29.33;28.00;;;;;14.53;73.15;99822.50;6277388;20;3606550;-42
2024/02/28 10:03:41;;;;;;;;;31.00;29.00;;;;;14.44;72.21;99825.91;6275890;20;3586838;-44
2024/02/28 10:06:09;;;;;;;;;32.00;29.33;;;;;15.46;69.99;99829.78;6277324;20;3599251;-44
2024/02/28 10:08:40;;;;;;;;;28.00;25.33;;;;;13.77;75.52;99835.31;6279493;20;3597284;-42
2024/02/28 10:11:09;;;;;;;;;36.00;30.33;;;;;13.96;72.08;99831.28;6280321;20;3599360;-44
2024/02/28 10:13:38;;;;;;;;;28.00;24.67;;;;;14.29;74.83;99838.69;6277803;20;3598174;-43
2024/02/28 10:16:07;;;;;;;;;31.67;29.33;;;;;15.54;67.86;99844.41;6273878;20;2836734;-45
2024/02/28 10:18:36;;;;;;;;;31.33;27.33;;;;;14.45;71.35;99835.72;6308137;20;3611166;-44
2024/02/28 10:21:05;;;;;;;;;35.67;30.00;;;;;14.87;71.42;99831.59;6278929;20;3591937;-46
2024/02/28 10:23:34;;;;;;;;;31.33;29.00;;;;;14.26;72.36;99830.84;6278098;20;3582956;-45
2024/02/28 10:26:03;;;;;;;;;34.67;29.67;;;;;15.29;69.62;99833.78;6280216;20;3589872;-44
2024/02/28 10:28:36;;;;;;;;;36.00;29.67;;;;;15.35;67.82;99823.38;6275660;20;2848284;-42
2024/02/28 10:31:07;;;;;;;;;40.00;31.00;;;;;14.20;72.73;99817.78;6306279;20;3586747;-41
2024/02/28 10:33:36;;;;;;;;;27.67;24.33;;;;;15.89;67.94;99818.22;6276456;20;3600276;-42
2024/02/28 10:36:06;;;;;;;;;33.33;30.67;;;;;16.29;65.60;99823.91;6277828;20;3594008;-44
2024/02/28 10:38:35;;;;;;;;;21.50;18.00;;;;;15.85;67.83;99831.16;6272034;20;2826728;-44
2024/02/28 10:41:05;;;;;;;;;37.67;32.67;;;;;16.67;63.33;99833.41;6274333;20;3599208;-44
2024/02/28 10:43:37;;;;;;;;;34.50;29.50;;;;;16.79;63.28;99832.38;6278979;20;2640936;-43
2024/02/28 10:46:09;;;;;;;;;31.67;31.00;;;;;15.45;70.36;99828.03;6272809;20;3581512;-43
2024/02/28 10:48:58;;;;;;;;;32.00;29.00;;;;;15.82;70.17;99827.81;6283386;20;3574228;-44
2024/02/28 10:51:27;;;;;;;;;32.67;26.33;;;;;16.53;63.98;99820.13;6280951;20;3603385;-46
2024/02/28 10:54:13;;;;;;;;;37.67;31.33;;;;;15.93;67.53;99823.25;6287294;20;3587763;-44
2024/02/28 10:56:44;;;;;;;;;26.50;24.50;;;;;14.81;70.67;99815.88;6284505;20;3535737;-43
2024/02/28 10:59:13;;;;;;;;;31.00;24.33;;;;;16.06;67.21;99817.69;6312898;20;3599292;-43
2024/02/28 11:01:44;;;;;;;;;33.33;29.67;;;;;15.66;66.85;99815.47;6281071;20;3591979;-47
2024/02/28 11:04:17;;;;;;;;;29.67;28.67;;;;;15.91;65.89;99818.94;6278902;20;3604488;-45
2024/02/28 11:06:55;;;;;;;;;31.33;30.33;;;;;16.70;64.38;99827.72;6282083;20;3581596;-43
2024/02/28 11:09:30;;;;;;;;;29.33;29.00;;;;;16.23;64.67;99821.72;6281680;20;3608612;-43
2024/02/28 11:11:59;;;;;;;;;27.00;24.00;;;;;15.36;68.59;99829.63;6280820;20;3595031;-45
2024/02/28 11:14:29;;;;;;;;;30.33;28.00;;;;;16.54;64.07;99825.44;6282430;20;3601305;-46